createdAt,value
2022-11-29T00:01:15.123Z,96791.47
2022-11-29T00:03:41.869Z,96800.38
2022-11-29T00:06:09.377Z,96800.47
2022-11-29T00:08:36.209Z,96798.63
2022-11-29T00:11:03.529Z,96788.38
2022-11-29T00:13:29.956Z,96795.66
2022-11-29T00:15:56.551Z,96794.72
2022-11-29T00:18:22.972Z,96800.38
2022-11-29T00:20:49.377Z,96798.44
2022-11-29T00:23:15.784Z,96795.88
2022-11-29T00:25:42.220Z,96803.34
2022-11-29T00:28:08.624Z,96798.13
2022-11-29T00:30:35.158Z,96798.03
2022-11-29T00:33:03.141Z,96804.09
2022-11-29T00:35:29.566Z,96799.28
2022-11-29T00:37:55.973Z,96804.56
2022-11-29T00:40:22.423Z,96806.22
2022-11-29T00:42:48.846Z,96806.31
2022-11-29T00:45:15.278Z,96806.13
2022-11-29T00:47:41.709Z,96803.66
2022-11-29T00:50:08.391Z,96805.31
2022-11-29T00:52:35.202Z,96802.84
2022-11-29T00:55:01.665Z,96807.34
2022-11-29T00:57:28.135Z,96815.75
2022-11-29T00:59:54.708Z,96811.56
2022-11-29T01:02:21.178Z,96809.81
2022-11-29T01:04:47.757Z,96805.91
2022-11-29T01:07:14.291Z,96799.97
2022-11-29T01:09:40.756Z,96809.22
2022-11-29T01:12:07.257Z,96804.91
2022-11-29T01:14:33.693Z,96796.72
2022-11-29T01:17:00.185Z,96805.59
2022-11-29T01:19:26.626Z,96793.00
2022-11-29T01:21:53.138Z,96792.81
2022-11-29T01:24:19.538Z,96797.53
2022-11-29T01:26:46.018Z,96797.72
2022-11-29T01:29:12.495Z,96794.75
2022-11-29T01:31:39.013Z,96801.31
2022-11-29T01:34:06.014Z,96793.50
2022-11-29T01:36:32.571Z,96785.94
2022-11-29T01:38:59.559Z,96791.25
2022-11-29T01:41:26.874Z,96776.81
2022-11-29T01:43:58.638Z,96785.13
2022-11-29T01:46:25.344Z,96778.03
2022-11-29T01:48:52.096Z,96785.53
2022-11-29T01:51:18.585Z,96774.34
2022-11-29T01:53:45.007Z,96777.97
2022-11-29T01:56:11.525Z,96788.28
2022-11-29T01:58:38.350Z,96780.81
2022-11-29T02:01:04.857Z,96774.25
2022-11-29T02:03:31.456Z,96784.91
2022-11-29T02:05:57.944Z,96787.47
2022-11-29T02:08:26.184Z,96783.16
2022-11-29T02:11:07.668Z,96792.41
2022-11-29T02:13:37.064Z,96793.63
2022-11-29T02:16:05.275Z,96796.06
2022-11-29T02:18:31.681Z,96789.41
2022-11-29T02:21:19.978Z,96788.59
2022-11-29T02:23:49.373Z,96778.34
2022-11-29T02:26:22.032Z,96790.13
2022-11-29T02:28:55.923Z,96787.56
2022-11-29T02:31:41.174Z,96786.75
2022-11-29T02:34:40.157Z,96785.72
2022-11-29T02:37:12.865Z,96786.03
2022-11-29T02:39:39.289Z,96786.88
2022-11-29T02:42:11.791Z,96773.94
2022-11-29T02:44:41.401Z,96782.56
2022-11-29T02:47:26.728Z,96788.41
2022-11-29T02:50:10.355Z,96786.66
2022-11-29T02:52:39.774Z,96789.31
2022-11-29T02:55:12.403Z,96783.50
2022-11-29T02:57:54.184Z,96798.66
2022-11-29T03:00:20.895Z,96792.00
2022-11-29T03:02:47.306Z,96796.09
2022-11-29T03:05:19.856Z,96799.47
2022-11-29T03:07:53.812Z,96801.53
2022-11-29T03:10:22.936Z,96799.78
2022-11-29T03:12:49.847Z,96801.63
2022-11-29T03:15:21.757Z,96806.66
2022-11-29T03:18:23.784Z,96805.00
2022-11-29T03:20:50.172Z,96805.44
2022-11-29T03:23:16.561Z,96808.81
2022-11-29T03:25:57.527Z,96812.50
2022-11-29T03:28:42.976Z,96802.88
2022-11-29T03:31:09.430Z,96812.28
2022-11-29T03:33:38.961Z,96814.13
2022-11-29T03:36:07.665Z,96808.59
2022-11-29T03:38:37.185Z,96809.41
2022-11-29T03:41:22.310Z,96809.22
2022-11-29T03:43:48.782Z,96812.59
2022-11-29T03:46:33.276Z,96810.03
2022-11-29T03:49:01.797Z,96817.41
2022-11-29T03:51:37.775Z,96824.25
2022-11-29T03:54:07.974Z,96820.41
2022-11-29T03:56:35.326Z,96821.63
2022-11-29T03:59:01.689Z,96822.44
2022-11-29T04:01:34.324Z,96818.03
2022-11-29T04:04:03.717Z,96817.00
2022-11-29T04:06:36.236Z,96813.44
2022-11-29T04:09:08.830Z,96816.00
2022-11-29T04:11:35.244Z,96825.41
2022-11-29T04:14:21.908Z,96826.03
2022-11-29T04:17:00.567Z,96834.94
2022-11-29T04:19:30.186Z,96828.09
2022-11-29T04:22:15.303Z,96822.13
2022-11-29T04:24:45.080Z,96823.97
2022-11-29T04:27:19.400Z,96833.28
2022-11-29T04:30:04.616Z,96830.13
2022-11-29T04:32:37.333Z,96826.66
2022-11-29T04:35:13.050Z,96839.34
2022-11-29T04:37:54.750Z,96834.75
2022-11-29T04:40:21.206Z,96823.16
2022-11-29T04:42:50.292Z,96835.56
2022-11-29T04:45:16.689Z,96838.94
2022-11-29T04:47:46.397Z,96836.31
2022-11-29T04:50:15.633Z,96833.94
2022-11-29T04:53:00.833Z,96832.31
2022-11-29T04:55:36.426Z,96837.13
2022-11-29T04:58:02.835Z,96844.00
2022-11-29T05:00:29.257Z,96837.94
2022-11-29T05:03:00.035Z,96838.66
2022-11-29T05:05:45.460Z,96837.00
2022-11-29T05:08:18.079Z,96848.78
2022-11-29T05:10:47.647Z,96840.50
2022-11-29T05:13:26.220Z,96847.28
2022-11-29T05:16:11.670Z,96846.16
2022-11-29T05:18:38.135Z,96855.66
2022-11-29T05:21:19.509Z,96850.53
2022-11-29T05:23:54.116Z,96859.78
2022-11-29T05:26:27.197Z,96856.41
2022-11-29T05:29:04.017Z,96855.88
2022-11-29T05:31:30.779Z,96863.56
2022-11-29T05:34:21.338Z,96858.44
2022-11-29T05:37:06.139Z,96866.25
2022-11-29T05:39:38.636Z,96859.28
2022-11-29T05:42:08.204Z,96864.59
2022-11-29T05:45:01.026Z,96873.09
2022-11-29T05:47:32.591Z,96870.75
2022-11-29T05:50:02.692Z,96876.97
2022-11-29T05:52:39.964Z,96885.69
2022-11-29T05:55:18.808Z,96885.47
2022-11-29T05:57:51.288Z,96884.78
2022-11-29T06:00:17.808Z,96898.28
2022-11-29T06:02:44.257Z,96893.91
2022-11-29T06:05:16.927Z,96899.03
2022-11-29T06:07:48.366Z,96898.00
2022-11-29T06:10:17.860Z,96900.28
2022-11-29T06:12:57.248Z,96911.53
2022-11-29T06:15:23.747Z,96918.22
2022-11-29T06:18:13.291Z,96912.06
2022-11-29T06:20:42.516Z,96916.25
2022-11-29T06:23:12.229Z,96918.75
2022-11-29T06:25:48.520Z,96917.94
2022-11-29T06:28:23.012Z,96912.06
2022-11-29T06:30:53.529Z,96918.81
2022-11-29T06:33:23.863Z,96911.06
2022-11-29T06:35:50.331Z,96914.44
2022-11-29T06:38:16.763Z,96913.63
2022-11-29T06:40:43.304Z,96905.00
2022-11-29T06:43:09.829Z,96909.19
2022-11-29T06:45:36.388Z,96900.81
2022-11-29T06:48:03.914Z,96908.91
2022-11-29T06:50:30.596Z,96921.84
2022-11-29T06:53:11.634Z,96920.69
2022-11-29T06:55:38.065Z,96929.19
2022-11-29T06:58:15.042Z,96925.28
2022-11-29T07:00:44.629Z,96935.88
2022-11-29T07:03:29.573Z,96936.41
2022-11-29T07:05:56.208Z,96939.03
2022-11-29T07:08:23.172Z,96931.28
2022-11-29T07:10:50.580Z,96934.66
2022-11-29T07:13:17.807Z,96937.09
2022-11-29T07:15:55.074Z,96937.41
2022-11-29T07:18:21.522Z,96939.78
2022-11-29T07:20:51.696Z,96947.38
2022-11-29T07:23:36.367Z,96940.09
2022-11-29T07:26:23.024Z,96957.06
2022-11-29T07:28:53.039Z,96945.03
2022-11-29T07:31:22.375Z,96951.50
2022-11-29T07:33:54.558Z,96954.50
2022-11-29T07:36:41.552Z,96963.41
2022-11-29T07:39:10.782Z,96963.00
2022-11-29T07:41:40.242Z,96956.75
2022-11-29T07:44:09.999Z,96958.28
2022-11-29T07:46:36.476Z,96957.75
2022-11-29T07:49:02.903Z,96955.81
2022-11-29T07:51:29.413Z,96967.53
2022-11-29T07:53:55.979Z,96961.06
2022-11-29T07:56:22.594Z,96967.00
2022-11-29T07:58:49.105Z,96964.94
2022-11-29T08:01:15.815Z,96960.03
2022-11-29T08:03:42.331Z,96961.66
2022-11-29T08:06:08.814Z,96969.75
2022-11-29T08:08:39.213Z,96968.00
2022-11-29T08:11:10.719Z,96968.72
2022-11-29T08:13:37.359Z,96963.38
2022-11-29T08:16:03.838Z,96968.41
2022-11-29T08:18:30.301Z,96970.28
2022-11-29T08:20:56.726Z,96965.94
2022-11-29T08:23:23.145Z,96963.38
2022-11-29T08:25:49.603Z,96962.69
2022-11-29T08:28:16.232Z,96965.94
2022-11-29T08:30:42.675Z,96963.28
2022-11-29T08:33:09.272Z,96957.72
2022-11-29T08:35:36.227Z,96966.63
2022-11-29T08:38:04.047Z,96972.50
2022-11-29T08:40:30.511Z,96967.34
2022-11-29T08:42:57.611Z,96971.25
2022-11-29T08:45:24.268Z,96972.88
2022-11-29T08:47:50.664Z,96973.72
2022-11-29T08:50:17.464Z,96981.28
2022-11-29T08:53:03.030Z,97000.22
2022-11-29T08:55:31.680Z,96983.28
2022-11-29T08:58:05.304Z,96979.22
2022-11-29T09:00:32.221Z,96977.06
2022-11-29T09:03:18.658Z,96991.06
2022-11-29T09:05:45.207Z,96984.16
2022-11-29T09:08:11.787Z,96991.97
2022-11-29T09:10:39.655Z,96984.50
2022-11-29T09:13:06.479Z,96976.03
2022-11-29T09:15:33.109Z,96964.63
2022-11-29T09:17:59.534Z,96981.91
2022-11-29T09:20:26.010Z,96990.44
2022-11-29T09:22:52.837Z,96982.75
2022-11-29T09:25:43.255Z,96998.25
2022-11-29T09:28:11.415Z,96994.47
2022-11-29T09:30:38.211Z,96985.63
2022-11-29T09:33:05.305Z,96997.53
2022-11-29T09:35:32.046Z,96998.56
2022-11-29T09:37:58.714Z,96998.16
2022-11-29T09:40:27.654Z,96995.47
2022-11-29T09:42:56.129Z,97001.66
2022-11-29T09:45:27.411Z,97006.69
2022-11-29T09:48:12.743Z,96992.59
2022-11-29T09:50:45.768Z,96980.25
2022-11-29T09:53:31.340Z,96982.50
2022-11-29T09:55:57.763Z,96988.44
2022-11-29T09:58:26.283Z,96991.34
2022-11-29T10:00:58.401Z,96987.44
2022-11-29T10:03:25.672Z,96986.31
2022-11-29T10:06:02.923Z,96990.75
2022-11-29T10:08:32.612Z,96993.31
2022-11-29T10:11:05.840Z,96985.22
2022-11-29T10:13:33.455Z,96992.41
2022-11-29T10:16:01.643Z,96990.56
2022-11-29T10:18:38.577Z,96997.09
2022-11-29T10:21:06.947Z,96991.88
2022-11-29T10:23:34.914Z,96980.78
2022-11-29T10:26:01.345Z,96989.41
2022-11-29T10:28:30.758Z,96990.72
2022-11-29T10:30:58.633Z,96991.22
2022-11-29T10:33:32.915Z,96979.09
2022-11-29T10:36:00.013Z,96980.25
2022-11-29T10:38:31.175Z,96981.38
2022-11-29T10:40:59.208Z,96976.34
2022-11-29T10:43:25.942Z,96987.00
2022-11-29T10:45:55.994Z,96987.84
2022-11-29T10:48:25.416Z,96982.00
2022-11-29T10:50:52.264Z,96984.84
2022-11-29T10:53:25.920Z,96988.22
2022-11-29T10:55:55.502Z,96986.47
2022-11-29T10:58:28.449Z,96984.19
2022-11-29T11:00:55.449Z,96974.19
2022-11-29T11:03:27.517Z,96984.03
2022-11-29T11:05:57.107Z,96982.75
2022-11-29T11:08:24.500Z,96980.06
2022-11-29T11:11:01.274Z,96986.09
2022-11-29T11:13:29.456Z,96978.66
2022-11-29T11:15:56.837Z,96977.44
2022-11-29T11:18:24.461Z,96981.88
2022-11-29T11:20:55.008Z,96981.75
2022-11-29T11:23:36.479Z,96989.47
2022-11-29T11:26:07.648Z,96979.31
2022-11-29T11:28:44.799Z,96974.41
2022-11-29T11:31:11.476Z,96980.38
2022-11-29T11:33:38.839Z,96974.16
2022-11-29T11:36:06.773Z,96980.94
2022-11-29T11:38:34.254Z,96977.69
2022-11-29T11:41:04.307Z,96977.19
2022-11-29T11:43:37.993Z,96974.69
2022-11-29T11:46:07.893Z,96962.16
2022-11-29T11:48:34.593Z,96971.47
2022-11-29T11:51:00.991Z,96977.66
2022-11-29T11:53:35.888Z,96974.50
2022-11-29T11:56:03.352Z,96972.84
2022-11-29T11:58:32.867Z,96981.50
2022-11-29T12:01:08.414Z,96977.66
2022-11-29T12:03:34.882Z,96975.91
2022-11-29T12:06:21.776Z,96985.28
2022-11-29T12:08:48.461Z,96980.84
2022-11-29T12:11:15.854Z,96981.69
2022-11-29T12:13:43.918Z,96973.22
2022-11-29T12:16:14.897Z,96973.47
2022-11-29T12:18:46.659Z,96974.28
2022-11-29T12:21:14.507Z,96971.00
2022-11-29T12:23:44.572Z,96975.53
2022-11-29T12:26:41.159Z,96975.06
2022-11-29T12:29:10.145Z,96967.56
2022-11-29T12:31:36.745Z,96968.09
2022-11-29T12:34:22.788Z,96977.31
2022-11-29T12:37:02.405Z,96972.38
2022-11-29T12:39:29.044Z,96971.44
2022-11-29T12:41:56.663Z,96972.38
2022-11-29T12:44:29.332Z,96975.88
2022-11-29T12:47:34.640Z,96976.81
2022-11-29T12:50:07.855Z,96983.06
2022-11-29T12:52:37.303Z,96983.41
2022-11-29T12:55:10.225Z,96983.19
2022-11-29T12:57:42.977Z,96986.47
2022-11-29T13:00:09.708Z,96986.47
2022-11-29T13:03:02.744Z,96985.88
2022-11-29T13:05:38.221Z,96987.19
2022-11-29T13:08:10.812Z,96990.59
2022-11-29T13:10:40.195Z,96993.47
2022-11-29T13:13:25.672Z,96987.53
2022-11-29T13:15:54.923Z,96996.25
2022-11-29T13:18:21.349Z,96995.53
2022-11-29T13:20:47.843Z,97003.56
2022-11-29T13:23:46.190Z,97009.88
2022-11-29T13:26:10.640Z,97008.63
2022-11-29T13:28:40.550Z,97013.06
2022-11-29T13:31:07.797Z,97019.13
2022-11-29T13:33:40.457Z,97017.50
2022-11-29T13:36:14.527Z,97010.91
2022-11-29T13:38:59.732Z,97011.72
2022-11-29T13:41:34.963Z,97019.56
2022-11-29T13:44:02.613Z,97017.09
2022-11-29T13:46:50.693Z,97023.88
2022-11-29T13:49:20.917Z,97023.75
2022-11-29T13:51:47.443Z,97020.25
2022-11-29T13:54:25.581Z,97020.16
2022-11-29T13:57:08.918Z,97021.00
2022-11-29T13:59:44.160Z,97023.66
2022-11-29T14:02:29.018Z,97029.00
2022-11-29T14:04:55.674Z,97028.38
2022-11-29T14:07:22.218Z,97025.31
2022-11-29T14:09:48.659Z,97033.13
2022-11-29T14:12:18.944Z,97038.25
2022-11-29T14:14:52.712Z,97032.50
2022-11-29T14:17:34.591Z,97023.03
2022-11-29T14:20:19.751Z,97030.66
2022-11-29T14:23:04.406Z,97029.09
2022-11-29T14:28:17.661Z,97034.06
2022-11-29T14:30:44.109Z,97035.91
2022-11-29T14:33:13.370Z,97034.47
2022-11-29T14:35:42.741Z,97035.72
2022-11-29T14:38:15.433Z,97032.81
2022-11-29T14:40:41.935Z,97027.91
2022-11-29T14:43:25.400Z,97028.84
2022-11-29T14:46:27.756Z,97030.97
2022-11-29T14:48:55.854Z,97043.38
2022-11-29T14:51:23.092Z,97040.41
2022-11-29T14:53:51.591Z,97041.91
2022-11-29T14:56:35.134Z,97032.38
2022-11-29T14:59:20.744Z,97036.63
2022-11-29T15:01:47.357Z,97029.00
2022-11-29T15:04:14.073Z,97036.56
2022-11-29T15:06:46.179Z,97041.63
2022-11-29T15:09:17.571Z,97041.50
2022-11-29T15:11:50.454Z,97042.63
2022-11-29T15:14:23.467Z,97050.06
2022-11-29T15:16:49.902Z,97051.97
2022-11-29T15:19:31.615Z,97044.19
2022-11-29T15:22:06.558Z,97046.75
2022-11-29T15:24:48.957Z,97052.75
2022-11-29T15:27:17.899Z,97047.41
2022-11-29T15:29:48.224Z,97053.59
2022-11-29T15:32:21.019Z,97057.09
2022-11-29T15:34:50.235Z,97051.00
2022-11-29T15:37:23.608Z,97052.44
2022-11-29T15:40:00.410Z,97061.69
2022-11-29T15:42:32.446Z,97058.13
2022-11-29T15:44:59.134Z,97053.91
2022-11-29T15:47:25.965Z,97060.94
2022-11-29T15:49:52.823Z,97064.59
2022-11-29T15:52:30.632Z,97065.66
2022-11-29T15:54:59.468Z,97061.63
2022-11-29T15:57:30.198Z,97066.03
2022-11-29T16:00:01.095Z,97072.78
2022-11-29T16:02:28.349Z,97079.47
2022-11-29T16:04:56.076Z,97081.09
2022-11-29T16:07:22.674Z,97087.03
2022-11-29T16:09:59.722Z,97091.44
2022-11-29T16:12:26.234Z,97082.38
2022-11-29T16:14:53.614Z,97092.75
2022-11-29T16:17:20.840Z,97086.81
2022-11-29T16:19:47.583Z,97086.09
2022-11-29T16:22:14.405Z,97079.41
2022-11-29T16:25:01.464Z,97087.31
2022-11-29T16:27:29.109Z,97086.69
2022-11-29T16:29:55.701Z,97079.25
2022-11-29T16:32:33.966Z,97082.06
2022-11-29T16:35:14.121Z,97085.63
2022-11-29T16:37:42.601Z,97087.25
2022-11-29T16:40:27.982Z,97078.09
2022-11-29T16:43:03.717Z,97081.66
2022-11-29T16:45:30.130Z,97079.25
2022-11-29T16:47:59.648Z,97080.28
2022-11-29T16:50:26.994Z,97076.13
2022-11-29T16:52:56.622Z,97086.44
2022-11-29T16:55:23.539Z,97086.44
2022-11-29T16:57:50.180Z,97090.91
2022-11-29T17:00:30.605Z,97095.44
2022-11-29T17:02:57.552Z,97096.91
2022-11-29T17:05:24.028Z,97089.59
2022-11-29T17:07:50.477Z,97091.47
2022-11-29T17:10:18.021Z,97096.47
2022-11-29T17:12:47.959Z,97094.84
2022-11-29T17:15:14.808Z,97091.66
2022-11-29T17:17:41.963Z,97097.22
2022-11-29T17:20:08.623Z,97088.28
2022-11-29T17:22:35.303Z,97094.47
2022-11-29T17:25:01.755Z,97103.94
2022-11-29T17:27:28.173Z,97105.59
2022-11-29T17:29:54.595Z,97102.22
2022-11-29T17:32:26.486Z,97098.00
2022-11-29T17:34:53.456Z,97105.59
2022-11-29T17:37:19.962Z,97098.78
2022-11-29T17:39:48.537Z,97096.94
2022-11-29T17:42:15.153Z,97103.94
2022-11-29T17:44:41.953Z,97093.00
2022-11-29T17:47:08.414Z,97105.75
2022-11-29T17:49:34.941Z,97104.94
2022-11-29T17:52:01.419Z,97108.38
2022-11-29T17:54:28.136Z,97104.50
2022-11-29T17:56:54.586Z,97099.63
2022-11-29T17:59:21.247Z,97117.72
2022-11-29T18:01:47.944Z,97115.47
2022-11-29T18:04:14.543Z,97108.06
2022-11-29T18:06:41.127Z,97113.25
2022-11-29T18:09:08.654Z,97113.31
2022-11-29T18:11:44.939Z,97115.94
2022-11-29T18:14:13.651Z,97120.53
2022-11-29T18:16:40.180Z,97120.78
2022-11-29T18:19:07.727Z,97119.41
2022-11-29T18:21:34.365Z,97123.84
2022-11-29T18:24:00.966Z,97118.13
2022-11-29T18:26:27.533Z,97123.31
2022-11-29T18:28:54.051Z,97127.88
2022-11-29T18:31:21.365Z,97125.63
2022-11-29T18:33:48.347Z,97126.81
2022-11-29T18:36:15.892Z,97127.13
2022-11-29T18:38:42.893Z,97122.38
2022-11-29T18:41:19.455Z,97128.69
2022-11-29T18:43:46.165Z,97123.31
2022-11-29T18:46:41.419Z,97126.22
2022-11-29T18:49:23.220Z,97126.44
2022-11-29T18:51:50.016Z,97123.00
2022-11-29T18:54:17.169Z,97126.31
2022-11-29T18:56:43.969Z,97121.13
2022-11-29T18:59:20.678Z,97126.22
2022-11-29T19:01:48.234Z,97133.88
2022-11-29T19:04:19.330Z,97126.31
2022-11-29T19:06:47.710Z,97129.81
2022-11-29T19:09:15.477Z,97131.69
2022-11-29T19:11:42.282Z,97141.38
2022-11-29T19:14:12.962Z,97131.44
2022-11-29T19:17:07.768Z,97136.72
2022-11-29T19:19:34.604Z,97138.84
2022-11-29T19:22:13.167Z,97141.75
2022-11-29T19:24:41.794Z,97146.75
2022-11-29T19:27:11.051Z,97148.28
2022-11-29T19:29:39.856Z,97146.47
2022-11-29T19:32:09.671Z,97148.97
2022-11-29T19:34:36.211Z,97148.13
2022-11-29T19:37:20.098Z,97145.03
2022-11-29T19:40:01.275Z,97147.84
2022-11-29T19:42:30.855Z,97152.94
2022-11-29T19:47:56.413Z,97165.28
2022-11-29T19:50:27.148Z,97157.47
2022-11-29T19:53:01.493Z,97149.72
2022-11-29T19:55:44.217Z,97153.78
2022-11-29T19:58:11.019Z,97155.63
2022-11-29T20:00:40.106Z,97153.44
2022-11-29T20:03:08.866Z,97148.56
2022-11-29T20:05:36.569Z,97158.31
2022-11-29T20:08:03.273Z,97156.66
2022-11-29T20:10:48.574Z,97157.47
2022-11-29T20:13:15.190Z,97154.84
2022-11-29T20:15:44.822Z,97154.75
2022-11-29T20:18:21.268Z,97158.09
2022-11-29T20:20:58.193Z,97165.75
2022-11-29T20:23:40.510Z,97164.91
2022-11-29T20:26:44.213Z,97164.03
2022-11-29T20:29:16.013Z,97169.94
2022-11-29T20:31:49.056Z,97171.03
2022-11-29T20:34:16.907Z,97169.75
2022-11-29T20:36:43.534Z,97169.28
2022-11-29T20:39:22.281Z,97172.84
2022-11-29T20:41:54.731Z,97173.06
2022-11-29T20:44:22.001Z,97169.69
2022-11-29T20:46:48.619Z,97165.28
2022-11-29T20:49:15.288Z,97167.75
2022-11-29T20:51:44.188Z,97176.16
2022-11-29T20:54:11.231Z,97167.75
2022-11-29T20:56:37.638Z,97170.44
2022-11-29T20:59:04.083Z,97174.78
2022-11-29T21:01:30.585Z,97167.19
2022-11-29T21:03:57.142Z,97169.81
2022-11-29T21:06:24.045Z,97169.72
2022-11-29T21:08:51.218Z,97170.44
2022-11-29T21:11:17.988Z,97172.91
2022-11-29T21:13:44.588Z,97166.94
2022-11-29T21:16:14.093Z,97170.28
2022-11-29T21:18:43.984Z,97175.59
2022-11-29T21:21:10.521Z,97173.25
2022-11-29T21:23:45.346Z,97175.22
2022-11-29T21:26:23.137Z,97169.34
2022-11-29T21:28:53.564Z,97169.34
2022-11-29T21:31:20.157Z,97183.78
2022-11-29T21:33:46.899Z,97180.16
2022-11-29T21:36:13.345Z,97176.69
2022-11-29T21:38:39.798Z,97185.06
2022-11-29T21:41:06.241Z,97190.09
2022-11-29T21:44:04.352Z,97184.34
2022-11-29T21:46:19.217Z,97185.19
2022-11-29T21:48:45.670Z,97179.28
2022-11-29T21:51:12.246Z,97180.81
2022-11-29T21:53:38.782Z,97184.06
2022-11-29T21:56:06.216Z,97185.53
2022-11-29T21:58:33.120Z,97178.75
2022-11-29T22:01:09.332Z,97181.50
2022-11-29T22:03:35.839Z,97181.69
2022-11-29T22:06:03.400Z,97181.88
2022-11-29T22:08:30.229Z,97175.41
2022-11-29T22:11:03.812Z,97178.91
2022-11-29T22:13:30.377Z,97172.22
2022-11-29T22:16:03.797Z,97176.59
2022-11-29T22:18:30.319Z,97171.59
2022-11-29T22:21:00.799Z,97185.28
2022-11-29T22:23:27.511Z,97176.53
2022-11-29T22:25:53.955Z,97175.47
2022-11-29T22:28:20.413Z,97175.97
2022-11-29T22:30:46.883Z,97173.59
2022-11-29T22:33:15.335Z,97174.34
2022-11-29T22:35:46.861Z,97181.78
2022-11-29T22:38:13.269Z,97181.66
2022-11-29T22:40:40.578Z,97179.75
2022-11-29T22:43:07.184Z,97184.75
2022-11-29T22:45:33.615Z,97186.47
2022-11-29T22:48:00.053Z,97183.91
2022-11-29T22:50:26.508Z,97182.13
2022-11-29T22:52:53.524Z,97178.91
2022-11-29T22:55:19.979Z,97186.63
2022-11-29T22:57:46.436Z,97179.13
2022-11-29T23:00:13.683Z,97186.69
2022-11-29T23:02:40.213Z,97177.28
2022-11-29T23:05:06.877Z,97178.25
2022-11-29T23:07:33.368Z,97180.78
2022-11-29T23:09:59.918Z,97181.78
2022-11-29T23:12:38.868Z,97183.59
2022-11-29T23:15:05.503Z,97188.78
2022-11-29T23:17:31.985Z,97176.97
2022-11-29T23:19:58.431Z,97186.31
2022-11-29T23:22:25.024Z,97180.31
2022-11-29T23:24:51.573Z,97179.31
2022-11-29T23:27:18.029Z,97183.34
2022-11-29T23:29:44.497Z,97180.66
2022-11-29T23:32:10.959Z,97178.94
2022-11-29T23:34:37.365Z,97180.78
2022-11-29T23:37:04.830Z,97183.44
2022-11-29T23:39:31.241Z,97185.22
2022-11-29T23:41:57.669Z,97178.44
2022-11-29T23:44:24.077Z,97169.97
2022-11-29T23:46:50.541Z,97170.09
2022-11-29T23:49:16.984Z,97173.59
2022-11-29T23:51:43.616Z,97174.66
2022-11-29T23:54:10.012Z,97174.00
2022-11-29T23:56:36.425Z,97169.88
2022-11-29T23:59:02.944Z,97173.44
